createdAt,value
2023-04-17T00:00:33.874Z,35.33
2023-04-17T00:03:01.736Z,27.77
2023-04-17T00:05:31.956Z,24.85
2023-04-17T00:08:02.369Z,30.42
2023-04-17T00:10:31.803Z,26.73
2023-04-17T00:12:58.516Z,33.20
2023-04-17T00:15:27.744Z,27.50
2023-04-17T00:17:54.491Z,26.10
2023-04-17T00:20:21.319Z,25.02
2023-04-17T00:22:47.987Z,30.67
2023-04-17T00:25:15.063Z,26.88
2023-04-17T00:27:44.616Z,28.52
2023-04-17T00:30:11.622Z,29.75
2023-04-17T00:32:38.401Z,32.13
2023-04-17T00:35:07.937Z,27.02
2023-04-17T00:37:35.940Z,29.83
2023-04-17T00:40:03.393Z,27.92
2023-04-17T00:42:30.041Z,29.33
2023-04-17T00:44:57.340Z,28.52
2023-04-17T00:47:26.856Z,27.25
2023-04-17T00:49:55.716Z,34.25
2023-04-17T00:52:29.808Z,31.92
2023-04-17T00:54:58.481Z,31.27
2023-04-17T00:57:28.088Z,29.40
2023-04-17T00:59:56.614Z,29.92
2023-04-17T01:02:23.845Z,29.40
2023-04-17T01:04:50.692Z,32.53
2023-04-17T01:07:22.331Z,31.58
2023-04-17T01:09:49.030Z,32.78
2023-04-17T01:12:26.196Z,31.58
2023-04-17T01:14:54.218Z,35.33
2023-04-17T01:17:21.956Z,30.70
2023-04-17T01:19:49.710Z,33.22
2023-04-17T01:22:16.910Z,35.85
2023-04-17T01:24:47.050Z,35.40
2023-04-17T01:27:15.220Z,35.45
2023-04-17T01:29:43.321Z,40.65
2023-04-17T01:32:10.556Z,31.15
2023-04-17T01:34:37.684Z,35.63
2023-04-17T01:37:07.478Z,34.50
2023-04-17T01:39:34.299Z,34.67
2023-04-17T01:42:01.035Z,31.80
2023-04-17T01:44:27.763Z,36.08
2023-04-17T01:46:54.474Z,32.60
2023-04-17T01:49:21.178Z,40.80
2023-04-17T01:51:47.828Z,37.88
2023-04-17T01:54:15.481Z,39.25
2023-04-17T01:56:44.457Z,56.15
2023-04-17T01:59:13.841Z,45.47
2023-04-17T02:01:40.904Z,34.97
2023-04-17T02:04:07.717Z,40.72
2023-04-17T02:06:36.829Z,36.50
2023-04-17T02:09:03.920Z,35.07
2023-04-17T02:11:30.692Z,37.97
2023-04-17T02:13:57.468Z,35.60
2023-04-17T02:16:24.301Z,36.58
2023-04-17T02:18:54.104Z,39.25
2023-04-17T02:21:23.309Z,36.88
2023-04-17T02:23:49.995Z,37.17
2023-04-17T02:26:19.298Z,39.47
2023-04-17T02:28:46.054Z,40.15
2023-04-17T02:31:13.242Z,39.83
2023-04-17T02:33:40.009Z,40.00
2023-04-17T02:36:09.250Z,38.80
2023-04-17T02:38:38.190Z,36.55
2023-04-17T02:41:05.654Z,47.97
2023-04-17T02:43:32.360Z,41.70
2023-04-17T02:45:59.105Z,41.55
2023-04-17T02:48:25.807Z,39.30
2023-04-17T02:50:52.567Z,42.00
2023-04-17T02:53:19.281Z,43.70
2023-04-17T02:55:45.967Z,40.10
2023-04-17T02:58:13.307Z,39.63
2023-04-17T03:00:40.773Z,40.80
2023-04-17T03:03:08.168Z,36.88
2023-04-17T03:05:35.852Z,42.35
2023-04-17T03:08:02.553Z,45.17
2023-04-17T03:10:31.724Z,46.40
2023-04-17T03:12:58.443Z,40.97
2023-04-17T03:15:25.333Z,38.35
2023-04-17T03:17:52.088Z,38.40
2023-04-17T03:20:19.015Z,36.72
2023-04-17T03:22:45.902Z,35.83
2023-04-17T03:25:12.644Z,36.65
2023-04-17T03:27:44.012Z,41.50
2023-04-17T03:30:11.018Z,46.22
2023-04-17T03:32:38.147Z,46.85
2023-04-17T03:35:05.332Z,38.47
2023-04-17T03:37:32.240Z,39.13
2023-04-17T03:39:58.977Z,36.38
2023-04-17T03:42:29.515Z,36.95
2023-04-17T03:44:58.768Z,41.60
2023-04-17T03:47:25.464Z,43.78
2023-04-17T03:49:52.212Z,39.65
2023-04-17T03:52:21.524Z,38.35
2023-04-17T03:54:48.657Z,44.58
2023-04-17T03:57:15.930Z,42.13
2023-04-17T03:59:45.131Z,37.35
2023-04-17T04:02:14.343Z,36.05
2023-04-17T04:04:43.652Z,37.70
2023-04-17T04:07:10.513Z,42.75
2023-04-17T04:09:39.335Z,42.08
2023-04-17T04:12:06.109Z,38.42
2023-04-17T04:14:32.770Z,41.05
2023-04-17T04:17:02.014Z,39.10
2023-04-17T04:19:28.711Z,37.20
2023-04-17T04:21:55.627Z,41.03
2023-04-17T04:24:22.310Z,44.42
2023-04-17T04:26:51.475Z,36.53
2023-04-17T04:29:18.286Z,41.23
2023-04-17T04:31:50.879Z,39.20
2023-04-17T04:34:21.544Z,38.85
2023-04-17T04:36:51.211Z,39.47
2023-04-17T04:39:20.532Z,34.28
2023-04-17T04:41:51.301Z,40.72
2023-04-17T04:44:18.604Z,34.88
2023-04-17T04:46:46.207Z,35.95
2023-04-17T04:49:13.385Z,35.85
2023-04-17T04:51:40.434Z,37.40
2023-04-17T04:54:08.061Z,35.95
2023-04-17T04:56:36.958Z,39.33
2023-04-17T04:59:03.614Z,33.58
2023-04-17T05:01:32.723Z,36.35
2023-04-17T05:03:59.641Z,36.20
2023-04-17T05:06:29.038Z,34.50
2023-04-17T05:08:55.700Z,38.40
2023-04-17T05:11:24.916Z,34.70
2023-04-17T05:13:51.596Z,33.75
2023-04-17T05:16:20.759Z,35.78
2023-04-17T05:18:48.001Z,37.80
2023-04-17T05:21:17.178Z,35.45
2023-04-17T05:23:46.073Z,31.98
2023-04-17T05:26:13.011Z,32.67
2023-04-17T05:28:39.687Z,38.22
2023-04-17T05:31:06.460Z,34.63
2023-04-17T05:33:33.244Z,35.83
2023-04-17T05:35:59.893Z,40.47
2023-04-17T05:38:29.137Z,37.95
2023-04-17T05:40:55.988Z,31.00
2023-04-17T05:43:24.943Z,37.47
2023-04-17T05:45:51.749Z,35.60
2023-04-17T05:48:20.920Z,37.53
2023-04-17T05:50:47.658Z,32.83
2023-04-17T05:53:16.534Z,29.80
2023-04-17T05:55:45.784Z,31.85
2023-04-17T06:00:42.617Z,35.05
2023-04-17T06:03:09.539Z,31.60
2023-04-17T06:05:36.679Z,33.13
2023-04-17T06:08:03.915Z,29.90
2023-04-17T06:10:30.591Z,30.70
2023-04-17T06:12:57.357Z,31.25
2023-04-17T06:15:24.146Z,27.45
2023-04-17T06:17:53.455Z,31.17
2023-04-17T06:20:20.400Z,30.77
2023-04-17T06:22:47.055Z,28.63
2023-04-17T06:25:13.881Z,29.35
2023-04-17T06:27:43.034Z,31.23
2023-04-17T06:30:12.474Z,21.73
2023-04-17T06:32:43.497Z,25.13
2023-04-17T06:35:12.802Z,24.92
2023-04-17T06:37:39.505Z,26.67
2023-04-17T06:40:09.066Z,26.95
2023-04-17T06:42:37.873Z,26.77
2023-04-17T06:45:05.375Z,31.58
2023-04-17T06:47:34.724Z,27.02
2023-04-17T06:50:03.708Z,26.65
2023-04-17T06:52:30.384Z,28.13
2023-04-17T06:54:58.727Z,22.92
2023-04-17T06:57:25.483Z,23.13
2023-04-17T06:59:52.196Z,24.67
2023-04-17T07:02:21.629Z,23.92
2023-04-17T07:04:51.663Z,20.17
2023-04-17T07:07:18.411Z,23.00
2023-04-17T07:09:48.230Z,20.48
2023-04-17T07:14:44.299Z,20.33
2023-04-17T07:17:11.079Z,18.60
2023-04-17T07:19:38.066Z,19.88
2023-04-17T07:22:05.459Z,22.25
2023-04-17T07:24:34.946Z,23.17
2023-04-17T07:27:02.865Z,19.80
2023-04-17T07:29:29.802Z,19.92
2023-04-17T07:31:59.185Z,21.08
2023-04-17T07:34:25.872Z,20.45
2023-04-17T07:36:53.073Z,22.48
2023-04-17T07:39:19.977Z,20.33
2023-04-17T07:41:48.969Z,20.98
2023-04-17T07:44:16.026Z,19.90
2023-04-17T07:46:43.240Z,17.65
2023-04-17T07:49:12.688Z,20.25
2023-04-17T07:51:44.526Z,16.67
2023-04-17T07:54:13.644Z,21.88
2023-04-17T07:56:40.602Z,19.57
2023-04-17T07:59:09.682Z,22.20
2023-04-17T08:01:36.546Z,19.52
2023-04-17T08:04:03.779Z,16.40
2023-04-17T08:06:30.691Z,19.40
2023-04-17T08:08:59.708Z,20.70
2023-04-17T08:11:26.382Z,19.37
2023-04-17T08:13:53.134Z,17.20
2023-04-17T08:16:20.003Z,17.30
2023-04-17T08:18:47.196Z,18.88
2023-04-17T08:21:16.190Z,17.45
2023-04-17T08:23:45.194Z,17.47
2023-04-17T08:26:11.871Z,18.73
2023-04-17T08:28:38.614Z,17.88
2023-04-17T08:31:05.481Z,16.88
2023-04-17T08:33:34.396Z,17.90
2023-04-17T08:36:04.776Z,18.30
2023-04-17T08:38:32.592Z,17.92
2023-04-17T08:41:05.572Z,18.77
2023-04-17T08:43:35.259Z,16.20
2023-04-17T08:46:03.406Z,17.85
2023-04-17T08:48:30.893Z,17.45
2023-04-17T08:50:58.092Z,16.35
2023-04-17T08:53:24.787Z,17.05
2023-04-17T08:55:51.526Z,16.48
2023-04-17T08:58:18.234Z,16.73
2023-04-17T09:00:45.407Z,14.57
2023-04-17T09:03:13.811Z,15.02
2023-04-17T09:05:43.339Z,15.35
2023-04-17T09:08:16.050Z,17.05
2023-04-17T09:10:44.045Z,16.70
2023-04-17T09:13:14.429Z,15.77
2023-04-17T09:15:42.862Z,18.27
2023-04-17T09:18:26.671Z,15.05
2023-04-17T09:20:57.625Z,14.98
2023-04-17T09:23:24.784Z,14.27
2023-04-17T09:26:07.801Z,14.02
2023-04-17T09:28:39.780Z,13.73
2023-04-17T09:31:27.239Z,14.00
2023-04-17T09:34:01.902Z,13.70
2023-04-17T09:36:33.676Z,14.93
2023-04-17T09:39:05.310Z,13.25
2023-04-17T09:41:36.342Z,11.60
2023-04-17T09:44:05.590Z,10.57
2023-04-17T09:46:42.872Z,10.63
2023-04-17T09:49:10.445Z,12.73
2023-04-17T09:51:38.653Z,12.50
2023-04-17T09:54:09.260Z,12.82
2023-04-17T09:56:38.972Z,12.27
2023-04-17T09:59:07.104Z,12.77
2023-04-17T10:01:35.671Z,13.63
2023-04-17T10:04:04.053Z,11.80
2023-04-17T10:06:32.376Z,12.77
2023-04-17T10:08:59.303Z,11.18
2023-04-17T10:11:37.406Z,11.93
2023-04-17T10:14:26.812Z,11.27
2023-04-17T10:16:54.616Z,12.52
2023-04-17T10:19:33.001Z,11.88
2023-04-17T10:22:32.284Z,12.13
2023-04-17T10:25:21.220Z,11.18
2023-04-17T10:27:59.746Z,9.20
2023-04-17T10:30:55.556Z,10.60
2023-04-17T10:33:25.578Z,10.60
2023-04-17T10:35:53.234Z,8.48
2023-04-17T10:38:35.665Z,9.50
2023-04-17T10:41:04.330Z,7.82
2023-04-17T10:43:33.962Z,9.02
2023-04-17T10:46:07.234Z,9.65
2023-04-17T10:48:40.922Z,7.53
2023-04-17T10:51:28.987Z,8.25
2023-04-17T10:53:59.049Z,10.90
2023-04-17T10:56:48.473Z,7.18
2023-04-17T10:59:20.729Z,8.85
2023-04-17T11:01:50.938Z,6.72
2023-04-17T11:04:27.288Z,8.70
2023-04-17T11:06:55.535Z,7.35
2023-04-17T11:09:24.552Z,5.97
2023-04-17T11:11:51.497Z,8.77
2023-04-17T11:14:20.653Z,5.57
2023-04-17T11:16:49.548Z,6.20
2023-04-17T11:19:26.152Z,5.20
2023-04-17T11:21:55.307Z,5.05
2023-04-17T11:24:29.922Z,7.97
2023-04-17T11:26:59.890Z,7.88
2023-04-17T11:29:27.269Z,7.13
2023-04-17T11:31:56.313Z,6.47
2023-04-17T11:34:24.937Z,8.60
2023-04-17T11:36:56.271Z,6.43
2023-04-17T11:39:28.023Z,6.15
2023-04-17T11:41:56.941Z,6.07
2023-04-17T11:44:24.287Z,6.10
2023-04-17T11:46:58.606Z,8.52
2023-04-17T11:49:29.448Z,6.30
2023-04-17T11:51:59.947Z,8.52
2023-04-17T11:54:39.905Z,7.05
2023-04-17T11:57:12.389Z,6.00
2023-04-17T11:59:44.560Z,6.18
2023-04-17T12:02:12.452Z,5.38
2023-04-17T12:04:42.049Z,6.13
2023-04-17T12:07:22.013Z,7.10
2023-04-17T12:09:57.835Z,7.82
2023-04-17T12:12:24.648Z,5.60
2023-04-17T12:14:53.958Z,5.97
2023-04-17T12:17:21.243Z,5.40
2023-04-17T12:19:47.976Z,6.00
2023-04-17T12:22:17.016Z,10.23
2023-04-17T12:24:45.851Z,5.30
2023-04-17T12:27:12.487Z,6.93
2023-04-17T12:29:44.423Z,4.47
2023-04-17T12:32:11.816Z,5.25
2023-04-17T12:34:40.991Z,7.05
2023-04-17T12:37:10.051Z,6.68
2023-04-17T12:39:38.958Z,4.30
2023-04-17T12:42:05.727Z,8.07
2023-04-17T12:44:34.830Z,5.93
2023-04-17T12:47:04.091Z,3.60
2023-04-17T12:49:30.866Z,4.50
2023-04-17T12:52:02.444Z,6.75
2023-04-17T12:54:32.849Z,6.80
2023-04-17T12:57:02.166Z,7.70
2023-04-17T12:59:29.034Z,6.03
2023-04-17T13:01:56.068Z,7.05
2023-04-17T13:04:23.008Z,6.95
2023-04-17T13:06:49.902Z,5.65
2023-04-17T13:09:17.974Z,5.55
2023-04-17T13:11:44.703Z,6.13
2023-04-17T13:14:15.177Z,5.68
2023-04-17T13:16:42.139Z,4.32
2023-04-17T13:19:09.154Z,4.95
2023-04-17T13:21:36.034Z,6.15
2023-04-17T13:24:03.088Z,4.43
2023-04-17T13:26:31.938Z,5.45
2023-04-17T13:29:00.827Z,3.83
2023-04-17T13:31:28.325Z,5.10
2023-04-17T13:33:57.556Z,3.83
2023-04-17T13:36:27.356Z,2.85
2023-04-17T13:38:54.075Z,4.70
2023-04-17T13:41:21.102Z,5.20
2023-04-17T13:43:47.758Z,3.08
2023-04-17T13:46:17.058Z,3.78
2023-04-17T13:48:43.897Z,2.83
2023-04-17T13:51:10.656Z,3.58
2023-04-17T13:53:37.401Z,5.32
2023-04-17T13:56:06.843Z,3.42
2023-04-17T13:58:36.734Z,2.45
2023-04-17T14:01:03.725Z,4.28
2023-04-17T14:03:30.737Z,3.58
2023-04-17T14:05:57.787Z,7.15
2023-04-17T14:08:28.074Z,4.00
2023-04-17T14:10:57.332Z,3.47
2023-04-17T14:13:26.381Z,3.55
2023-04-17T14:15:55.773Z,3.75
2023-04-17T14:18:24.750Z,3.05
2023-04-17T14:20:55.471Z,3.53
2023-04-17T14:23:22.615Z,3.17
2023-04-17T14:25:49.357Z,4.78
2023-04-17T14:28:18.914Z,2.58
2023-04-17T14:30:47.888Z,6.00
2023-04-17T14:33:14.591Z,3.08
2023-04-17T14:35:41.380Z,4.40
2023-04-17T14:38:08.758Z,3.78
2023-04-17T14:40:35.907Z,4.90
2023-04-17T14:43:02.602Z,3.75
2023-04-17T14:45:29.686Z,4.95
2023-04-17T14:47:56.519Z,4.97
2023-04-17T14:50:23.303Z,3.30
2023-04-17T14:52:50.028Z,4.75
2023-04-17T14:55:16.835Z,3.80
2023-04-17T14:57:45.797Z,3.65
2023-04-17T15:00:13.108Z,4.00
2023-04-17T15:02:39.905Z,5.38
2023-04-17T15:05:07.657Z,4.20
2023-04-17T15:07:34.779Z,3.83
2023-04-17T15:10:01.564Z,3.75
2023-04-17T15:12:28.487Z,11.68
2023-04-17T15:14:56.441Z,5.85
2023-04-17T15:17:25.544Z,4.85
2023-04-17T15:19:57.283Z,5.07
2023-04-17T15:22:24.074Z,5.78
2023-04-17T15:24:53.043Z,5.20
2023-04-17T15:27:20.127Z,6.90
2023-04-17T15:29:49.335Z,4.68
2023-04-17T15:32:16.262Z,6.30
2023-04-17T15:34:48.406Z,5.78
2023-04-17T15:37:17.204Z,6.00
2023-04-17T15:39:46.205Z,7.55
2023-04-17T15:42:15.276Z,4.90
2023-04-17T15:44:42.156Z,6.97
2023-04-17T15:47:09.986Z,5.72
2023-04-17T15:49:39.202Z,8.02
2023-04-17T15:52:06.805Z,4.78
2023-04-17T15:54:36.036Z,6.35
2023-04-17T15:57:02.718Z,4.75
2023-04-17T15:59:33.232Z,3.78
2023-04-17T16:02:00.160Z,4.95
2023-04-17T16:04:27.212Z,5.32
2023-04-17T16:06:54.349Z,4.95
2023-04-17T16:09:24.461Z,6.18
2023-04-17T16:11:53.674Z,6.35
2023-04-17T16:14:22.838Z,4.40
2023-04-17T16:16:49.535Z,6.68
2023-04-17T16:19:18.751Z,4.75
2023-04-17T16:21:45.500Z,4.95
2023-04-17T16:24:12.186Z,6.35
2023-04-17T16:26:38.927Z,5.53
2023-04-17T16:29:07.769Z,4.53
2023-04-17T16:31:36.667Z,7.18
2023-04-17T16:34:05.658Z,5.47
2023-04-17T16:36:33.380Z,7.33
2023-04-17T16:39:02.309Z,6.20
2023-04-17T16:41:30.519Z,5.03
2023-04-17T16:44:00.071Z,5.00
2023-04-17T16:46:35.443Z,8.60
2023-04-17T16:49:12.471Z,6.25
2023-04-17T16:51:41.458Z,5.68
2023-04-17T16:54:10.789Z,6.15
2023-04-17T16:56:37.621Z,7.03
2023-04-17T16:59:04.791Z,6.60
2023-04-17T17:01:32.374Z,6.15
2023-04-17T17:03:59.318Z,5.85
2023-04-17T17:06:26.843Z,6.25
2023-04-17T17:08:55.201Z,10.25
2023-04-17T17:11:25.235Z,5.53
2023-04-17T17:16:21.376Z,4.68
2023-04-17T17:18:48.815Z,5.95
2023-04-17T17:21:15.716Z,10.48
2023-04-17T17:23:44.895Z,8.75
2023-04-17T17:26:11.625Z,6.15
2023-04-17T17:28:38.398Z,6.32
2023-04-17T17:31:09.581Z,6.53
2023-04-17T17:33:39.015Z,10.18
2023-04-17T17:36:06.185Z,15.15
2023-04-17T17:38:33.328Z,6.07
2023-04-17T17:41:00.372Z,5.80
2023-04-17T17:43:29.523Z,5.90
2023-04-17T17:45:56.259Z,6.40
2023-04-17T17:48:25.256Z,5.82
2023-04-17T17:50:58.299Z,5.67
2023-04-17T17:53:26.982Z,6.50
2023-04-17T17:55:57.242Z,6.27
2023-04-17T17:58:24.758Z,10.00
2023-04-17T18:00:51.522Z,6.07
2023-04-17T18:03:18.883Z,5.55
2023-04-17T18:05:48.749Z,6.50
2023-04-17T18:08:17.196Z,7.88
2023-04-17T18:10:43.909Z,6.90
2023-04-17T18:13:12.789Z,6.43
2023-04-17T18:15:41.885Z,4.97
2023-04-17T18:18:08.809Z,9.38
2023-04-17T18:20:39.457Z,5.47
2023-04-17T18:23:06.429Z,4.82
2023-04-17T18:25:35.529Z,6.25
2023-04-17T18:28:03.624Z,6.38
2023-04-17T18:30:32.895Z,6.45
2023-04-17T18:32:59.713Z,6.27
2023-04-17T18:35:26.562Z,8.77
2023-04-17T18:37:53.304Z,7.95
2023-04-17T18:40:22.516Z,11.45
2023-04-17T18:42:49.259Z,5.63
2023-04-17T18:45:18.405Z,7.00
2023-04-17T18:47:45.772Z,6.00
2023-04-17T18:50:15.067Z,6.53
2023-04-17T18:52:50.280Z,6.82
2023-04-17T18:55:17.965Z,7.88
2023-04-17T18:57:44.695Z,4.68
2023-04-17T19:00:12.739Z,6.55
2023-04-17T19:02:40.718Z,6.47
2023-04-17T19:05:10.440Z,7.35
2023-04-17T19:07:37.186Z,6.05
2023-04-17T19:10:04.344Z,5.20
2023-04-17T19:12:31.074Z,8.77
2023-04-17T19:14:57.806Z,6.10
2023-04-17T19:17:25.514Z,6.20
2023-04-17T19:19:52.314Z,6.55
2023-04-17T19:22:19.127Z,7.40
2023-04-17T19:24:49.803Z,8.02
2023-04-17T19:27:17.012Z,8.80
2023-04-17T19:29:43.772Z,4.90
2023-04-17T19:32:12.050Z,6.28
2023-04-17T19:34:41.480Z,5.45
2023-04-17T19:37:08.323Z,6.60
2023-04-17T19:39:37.164Z,6.82
2023-04-17T19:42:03.974Z,7.00
2023-04-17T19:44:30.721Z,6.28
2023-04-17T19:46:57.812Z,7.03
2023-04-17T19:49:24.607Z,6.95
2023-04-17T19:51:53.484Z,6.78
2023-04-17T19:54:20.201Z,6.85
2023-04-17T19:56:46.937Z,6.45
2023-04-17T19:59:16.093Z,7.70
2023-04-17T20:01:44.408Z,7.38
2023-04-17T20:04:11.517Z,6.30
2023-04-17T20:06:39.796Z,7.32
2023-04-17T20:09:06.653Z,5.38
2023-04-17T20:11:33.866Z,7.13
2023-04-17T20:14:01.034Z,6.28
2023-04-17T20:16:28.245Z,9.23
2023-04-17T20:18:56.712Z,8.38
2023-04-17T20:21:24.142Z,6.93
2023-04-17T20:23:51.331Z,7.63
2023-04-17T20:26:18.459Z,9.52
2023-04-17T20:28:45.742Z,7.75
2023-04-17T20:31:15.305Z,6.75
2023-04-17T20:33:42.505Z,8.05
2023-04-17T20:36:09.649Z,8.02
2023-04-17T20:38:36.816Z,8.00
2023-04-17T20:41:04.014Z,6.95
2023-04-17T20:43:34.146Z,10.13
2023-04-17T20:46:01.404Z,7.82
2023-04-17T20:48:28.587Z,9.48
2023-04-17T20:50:55.473Z,5.93
2023-04-17T20:53:22.176Z,9.63
2023-04-17T20:55:48.893Z,8.05
2023-04-17T20:58:15.577Z,8.20
2023-04-17T21:00:58.241Z,7.13
2023-04-17T21:03:30.238Z,8.85
2023-04-17T21:05:57.305Z,9.87
2023-04-17T21:08:26.795Z,8.10
2023-04-17T21:10:53.504Z,9.23
2023-04-17T21:13:22.702Z,9.93
2023-04-17T21:15:49.532Z,14.52
2023-04-17T21:18:18.801Z,7.03
2023-04-17T21:20:45.864Z,7.63
2023-04-17T21:23:12.659Z,8.77
2023-04-17T21:25:39.366Z,10.15
2023-04-17T21:28:06.159Z,8.75
2023-04-17T21:30:33.050Z,8.80
2023-04-17T21:33:01.941Z,8.10
2023-04-17T21:35:29.004Z,12.10
2023-04-17T21:37:57.737Z,9.73
2023-04-17T21:40:26.056Z,8.18
2023-04-17T21:42:53.465Z,9.73
2023-04-17T21:45:20.875Z,8.20
2023-04-17T21:47:48.162Z,11.70
2023-04-17T21:50:14.979Z,9.55
2023-04-17T21:52:41.696Z,9.35
2023-04-17T21:55:08.705Z,10.75
2023-04-17T21:57:35.421Z,8.93
2023-04-17T22:00:04.479Z,8.10
2023-04-17T22:02:31.391Z,9.33
2023-04-17T22:05:00.356Z,8.63
2023-04-17T22:07:29.616Z,10.73
2023-04-17T22:10:01.592Z,7.35
2023-04-17T22:12:28.263Z,8.25
2023-04-17T22:14:57.329Z,8.50
2023-04-17T22:17:24.039Z,13.40
2023-04-17T22:19:55.573Z,8.50
2023-04-17T22:22:22.451Z,7.90
2023-04-17T22:24:51.791Z,11.05
2023-04-17T22:27:18.478Z,9.15
2023-04-17T22:29:45.119Z,8.57
2023-04-17T22:32:11.867Z,7.93
2023-04-17T22:34:41.224Z,11.43
2023-04-17T22:37:09.186Z,9.05
2023-04-17T22:39:35.865Z,9.73
2023-04-17T22:42:02.710Z,8.07
2023-04-17T22:44:29.454Z,7.63
2023-04-17T22:46:58.554Z,12.57
2023-04-17T22:49:25.285Z,8.13
2023-04-17T22:51:55.280Z,8.02
2023-04-17T22:54:24.524Z,7.25
2023-04-17T22:56:51.391Z,7.75
2023-04-17T22:59:18.048Z,9.73
2023-04-17T23:01:45.188Z,10.35
2023-04-17T23:04:12.401Z,9.07
2023-04-17T23:06:41.874Z,9.25
2023-04-17T23:09:11.390Z,12.18
2023-04-17T23:11:40.840Z,12.32
2023-04-17T23:14:07.548Z,9.45
2023-04-17T23:16:34.216Z,9.85
2023-04-17T23:19:01.387Z,11.90
2023-04-17T23:21:28.515Z,11.35
2023-04-17T23:23:58.115Z,13.45
2023-04-17T23:26:25.809Z,12.45
2023-04-17T23:28:52.955Z,13.75
2023-04-17T23:31:20.147Z,9.55
2023-04-17T23:33:47.246Z,9.82
2023-04-17T23:36:14.349Z,12.18
2023-04-17T23:38:41.420Z,12.90
2023-04-17T23:41:08.538Z,11.77
2023-04-17T23:43:35.664Z,9.13
2023-04-17T23:46:02.524Z,9.45
2023-04-17T23:48:29.609Z,14.27
2023-04-17T23:50:56.341Z,10.27
2023-04-17T23:53:25.584Z,10.02
2023-04-17T23:55:52.658Z,9.07
2023-04-17T23:58:19.779Z,10.80
